Time;durP1;ratioP1;P1;durP2;ratioP2;P2;SDS_P1;SDS_P2;PMS_P1;PMS_P2;Temp;Humidity;BMP_temperature;BMP_pressure;BME280_temperature;BME280_humidity;BME280_pressure;Samples;Min_cycle;Max_cycle;Signal;HPM_P1;HPM_P2
2021/08/05 00:02:14;;;;;;;11.15;5.68;;;;;;;12.96;74.86;99554.97;255119;1103;115763;-66
2021/08/05 00:07:18;;;;;;;5.00;4.63;;;;;;;12.75;74.71;99548.64;256361;1103;116243;-65
2021/08/05 00:12:24;;;;;;;;;;;;;;;12.71;74.86;99555.55;256398;1104;115123;-65
2021/08/05 00:17:27;;;;;;;9.73;6.87;;;;;;;12.61;75.19;99552.77;258116;1101;103666;-64
2021/08/05 00:22:30;;;;;;;6.77;5.63;;;;;;;12.66;75.34;99548.28;257211;1104;114699;-65
2021/08/05 00:27:33;;;;;;;11.73;7.35;;;;;;;12.76;75.47;99556.41;256608;1103;115336;-65
2021/08/05 00:32:37;;;;;;;10.40;6.95;;;;;;;12.78;75.48;99543.59;255641;1103;115579;-66
2021/08/05 00:37:40;;;;;;;7.60;6.90;;;;;;;12.84;75.43;99540.97;255689;1103;116270;-64
2021/08/05 00:42:49;;;;;;;7.60;6.33;;;;;;;12.75;75.31;99535.27;255141;1103;115949;-65
2021/08/05 00:47:53;;;;;;;10.13;6.80;;;;;;;12.67;75.39;99533.04;254561;1104;116024;-65
2021/08/05 00:52:58;;;;;;;9.25;6.90;;;;;;;12.52;74.86;99532.91;255162;1103;116651;-65
2021/08/05 00:58:02;;;;;;;8.38;7.15;;;;;;;12.43;75.18;99530.67;254956;1103;114734;-65
2021/08/05 01:03:40;;;;;;;6.40;5.90;;;;;;;12.40;75.52;99531.17;255167;1104;115043;-65
2021/08/05 01:08:50;;;;;;;7.23;6.55;;;;;;;12.32;75.50;99512.91;254378;1104;116057;-64
2021/08/05 01:14:04;;;;;;;7.43;5.67;;;;;;;12.27;75.80;99523.54;254571;1104;114901;-67
2021/08/05 01:19:26;;;;;;;12.95;6.70;;;;;;;12.34;76.06;99510.80;254114;1103;115101;-68
2021/08/05 01:24:35;;;;;;;7.18;6.48;;;;;;;12.35;75.93;99516.95;254797;1103;115025;-64
2021/08/05 01:29:39;;;;;;;6.80;6.20;;;;;;;12.30;75.94;99509.67;254104;1104;115388;-67
2021/08/05 01:34:42;;;;;;;6.45;5.85;;;;;;;12.21;75.68;99507.72;254732;1103;115475;-67
2021/08/05 01:39:46;;;;;;;8.95;6.25;;;;;;;12.13;75.80;99498.28;255140;1104;115025;-65
2021/08/05 01:44:52;;;;;;;7.15;6.55;;;;;;;12.05;75.96;99488.84;254067;1104;115946;-64
2021/08/05 01:49:57;;;;;;;9.28;7.35;;;;;;;12.04;76.18;99491.76;255210;1096;114804;-66
2021/08/05 01:55:01;;;;;;;6.68;6.08;;;;;;;12.04;76.18;99491.76;254679;1096;115202;-64
2021/08/05 02:00:10;;;;;;;9.07;7.93;;;;;;;12.07;76.33;99493.93;254813;1100;115249;-68
2021/08/05 02:05:26;;;;;;;14.65;7.93;;;;;;;12.04;76.16;99499.77;254373;1104;115870;-67
2021/08/05 02:10:35;;;;;;;9.13;8.18;;;;;;;12.01;76.58;99505.61;255172;1096;116964;-65
2021/08/05 02:15:43;;;;;;;7.65;6.70;;;;;;;12.00;76.42;99506.66;256047;1103;115197;-64
2021/08/05 02:20:48;;;;;;;13.05;9.13;;;;;;;11.93;76.53;99517.53;257231;1103;115547;-64
2021/08/05 02:25:53;;;;;;;15.13;8.80;;;;;;;11.93;76.78;99508.71;256609;1104;115523;-65
2021/08/05 02:30:57;;;;;;;16.47;9.20;;;;;;;11.94;76.72;99504.98;255480;1102;116085;-64
2021/08/05 02:36:01;;;;;;;9.48;8.58;;;;;;;12.04;77.22;99502.44;254411;1104;114644;-65
2021/08/05 02:41:07;;;;;;;15.18;9.10;;;;;;;12.17;77.14;99493.24;256142;1104;115012;-64
2021/08/05 02:46:11;;;;;;;9.85;8.85;;;;;;;12.21;76.87;99484.48;255183;1104;115462;-64
2021/08/05 02:51:16;;;;;;;9.33;8.30;;;;;;;12.22;76.75;99480.75;254833;1102;115082;-64
2021/08/05 02:56:19;;;;;;;12.40;9.30;;;;;;;12.12;76.44;99470.75;255664;1102;115695;-64
2021/08/05 03:01:22;;;;;;;11.35;7.85;;;;;;;12.10;76.57;99472.86;255024;1103;115326;-64
2021/08/05 03:06:27;;;;;;;9.80;8.58;;;;;;;12.09;76.79;99465.09;254402;1103;116154;-66
2021/08/05 03:11:29;;;;;;;9.43;8.55;;;;;;;12.12;76.84;99461.93;254729;1103;115986;-66
2021/08/05 03:16:32;;;;;;;9.40;7.65;;;;;;;12.08;76.87;99458.95;254490;1100;116613;-69
2021/08/05 03:21:36;;;;;;;8.07;7.23;;;;;;;12.05;76.90;99458.64;254555;1104;116108;-66
2021/08/05 03:26:40;;;;;;;8.20;7.50;;;;;;;12.04;77.13;99465.84;254526;1104;115540;-65
2021/08/05 03:31:42;;;;;;;9.25;8.35;;;;;;;12.10;77.45;99462.18;254474;1103;115120;-65
2021/08/05 03:36:45;;;;;;;10.90;8.37;;;;;;;12.22;77.92;99459.38;254292;1104;116558;-65
2021/08/05 03:41:49;;;;;;;21.40;8.55;;;;;;;12.37;78.13;99462.18;254620;1103;116344;-65
2021/08/05 03:46:52;;;;;;;12.33;9.13;;;;;;;12.43;78.06;99460.37;254904;1104;116915;-65
2021/08/05 03:51:55;;;;;;;13.03;10.47;;;;;;;12.61;78.24;99467.20;254523;1103;115815;-65
2021/08/05 03:56:58;;;;;;;12.63;11.33;;;;;;;12.76;78.64;99464.66;254879;1096;116482;-67
2021/08/05 04:02:02;;;;;;;13.75;11.15;;;;;;;12.90;78.62;99459.67;254695;1100;116232;-65
2021/08/05 04:07:06;;;;;;;19.53;12.50;;;;;;;13.02;78.71;99457.63;256025;1104;117288;-65
2021/08/05 04:12:09;;;;;;;14.20;11.80;;;;;;;13.14;78.84;99444.88;255292;1104;115201;-66
2021/08/05 04:17:12;;;;;;;13.25;11.05;;;;;;;13.26;78.53;99447.37;256481;1104;116573;-65
2021/08/05 04:22:14;;;;;;;14.90;12.38;;;;;;;13.41;78.99;99450.14;257201;1103;115940;-66
2021/08/05 04:27:17;;;;;;;11.80;10.68;;;;;;;13.47;78.51;99455.23;257230;1104;114940;-66
2021/08/05 04:32:20;;;;;;;17.85;10.60;;;;;;;13.58;78.79;99458.78;257085;1104;115030;-65
2021/08/05 04:37:23;;;;;;;14.23;12.30;;;;;;;13.75;78.60;99462.09;257115;1103;115075;-66
2021/08/05 04:42:26;;;;;;;12.83;11.53;;;;;;;13.84;78.19;99451.65;255329;1103;115545;-65
2021/08/05 04:47:29;;;;;;;16.40;12.88;;;;;;;13.95;78.64;99450.63;255685;1103;115973;-65
2021/08/05 04:52:33;;;;;;;15.65;13.98;;;;;;;14.06;79.16;99451.47;255743;1104;115600;-64
2021/08/05 04:58:04;;;;;;;15.53;13.83;;;;;;;14.27;79.20;99442.39;255317;1103;115652;-66
2021/08/05 05:03:08;;;;;;;15.53;14.00;;;;;;;14.48;79.41;99446.73;256364;1096;115436;-65
2021/08/05 05:08:20;;;;;;;18.20;14.18;;;;;;;14.70;79.19;99445.66;253725;1104;115752;-65
2021/08/05 05:13:24;;;;;;;15.55;14.10;;;;;;;14.90;79.39;99445.66;253832;1103;115347;-65
2021/08/05 05:18:27;;;;;;;15.40;13.70;;;;;;;15.07;79.19;99439.99;255578;1104;115039;-66
2021/08/05 05:23:31;;;;;;;14.28;12.65;;;;;;;15.19;79.57;99445.08;256041;1104;116099;-67
2021/08/05 05:28:35;;;;;;;16.60;11.68;;;;;;;15.35;79.52;99434.02;256685;1103;116052;-63
2021/08/05 05:33:38;;;;;;;15.88;13.03;;;;;;;15.53;78.94;99442.58;255604;1104;116937;-64
2021/08/05 05:38:41;;;;;;;21.40;13.60;;;;;;;15.64;79.25;99431.52;256255;1103;116067;-64
2021/08/05 05:43:44;;;;;;;18.48;14.18;;;;;;;15.83;79.46;99432.53;257238;1103;115584;-66
2021/08/05 05:48:47;;;;;;;13.45;12.10;;;;;;;16.08;79.22;99430.78;257112;1103;115240;-66
2021/08/05 05:53:50;;;;;;;21.55;14.05;;;;;;;16.30;79.08;99427.67;256295;1103;115474;-66
2021/08/05 05:58:52;;;;;;;22.23;13.48;;;;;;;16.41;79.11;99427.34;254339;1104;115857;-68
2021/08/05 06:03:55;;;;;;;18.08;15.00;;;;;;;16.55;78.78;99422.09;253682;1103;115141;-69
2021/08/05 06:09:00;;;;;;;18.27;14.63;;;;;;;16.65;78.72;99426.64;255772;1104;115090;-66
2021/08/05 06:14:03;;;;;;;15.15;13.08;;;;;;;16.73;78.36;99423.34;256403;1102;115358;-67
2021/08/05 06:19:06;;;;;;;19.98;15.08;;;;;;;16.81;77.96;99423.52;253759;1096;115801;-66
2021/08/05 06:24:12;;;;;;;17.15;13.33;;;;;;;16.92;78.48;99418.85;257278;1103;115719;-67
2021/08/05 06:29:15;;;;;;;16.20;14.57;;;;;;;17.00;78.30;99418.24;257282;1103;115681;-66
2021/08/05 06:34:17;;;;;;;16.50;14.90;;;;;;;17.12;78.05;99415.17;257265;1104;115687;-66
2021/08/05 06:39:20;;;;;;;17.63;15.80;;;;;;;17.24;77.93;99412.88;257075;1103;116131;-67
2021/08/05 06:44:24;;;;;;;23.58;19.98;;;;;;;17.36;77.41;99399.02;257187;1104;119303;-66
2021/08/05 06:49:27;;;;;;;18.68;16.60;;;;;;;17.48;77.58;99399.39;255250;1103;116892;-67
2021/08/05 06:54:30;;;;;;;20.25;18.15;;;;;;;17.63;77.21;99398.41;257342;1104;117069;-66
2021/08/05 06:59:36;;;;;;;19.75;16.48;;;;;;;17.74;76.69;99400.70;257285;1103;115407;-66
2021/08/05 07:04:42;;;;;;;17.05;15.23;;;;;;;17.89;76.76;99398.91;253698;1104;115835;-67
2021/08/05 07:09:46;;;;;;;14.00;12.63;;;;;;;17.97;76.55;99401.75;255999;1103;115812;-67
2021/08/05 07:14:49;;;;;;;14.30;12.45;;;;;;;18.09;75.78;99395.91;257229;1103;116526;-67
2021/08/05 07:19:52;;;;;;;13.75;12.40;;;;;;;18.17;75.78;99389.86;255777;1096;116412;-68
2021/08/05 07:24:55;;;;;;;15.63;13.33;;;;;;;18.25;75.22;99386.50;255071;1103;115396;-68
2021/08/05 07:29:58;;;;;;;14.80;12.63;;;;;;;18.29;75.32;99382.13;253624;1103;115734;-68
2021/08/05 07:35:01;;;;;;;12.63;11.50;;;;;;;18.39;75.16;99381.14;253621;1104;114772;-68
2021/08/05 07:40:10;;;;;;;11.40;10.35;;;;;;;18.51;74.63;99385.00;255141;1104;116623;-68
2021/08/05 07:45:14;;;;;;;11.48;10.13;;;;;;;18.62;74.91;99390.27;254092;1104;115028;-68
2021/08/05 07:50:17;;;;;;;10.38;9.40;;;;;;;18.71;74.16;99391.17;254154;1104;115067;-68
2021/08/05 07:55:20;;;;;;;10.43;9.33;;;;;;;18.86;74.58;99384.72;256530;1104;114518;-68
2021/08/05 08:00:23;;;;;;;9.47;8.53;;;;;;;19.12;74.04;99381.23;254730;1104;115398;-68
2021/08/05 08:05:26;;;;;;;7.10;6.20;;;;;;;19.36;73.36;99386.44;257093;1103;116064;-68
2021/08/05 08:10:29;;;;;;;6.83;6.23;;;;;;;19.55;72.52;99377.47;256582;1103;114848;-68
2021/08/05 08:15:52;;;;;;;7.25;6.63;;;;;;;19.63;72.27;99374.03;254311;1102;115100;-68
2021/08/05 08:20:55;;;;;;;6.30;5.83;;;;;;;19.69;71.85;99368.21;255303;1104;115744;-68
2021/08/05 08:25:58;;;;;;;6.88;6.18;;;;;;;19.70;71.84;99366.31;256194;1104;115228;-68
2021/08/05 08:31:01;;;;;;;10.33;5.75;;;;;;;19.54;71.33;99363.14;253937;1104;116179;-67
2021/08/05 08:36:05;;;;;;;9.35;6.38;;;;;;;19.48;71.27;99358.91;255422;1103;115165;-67
2021/08/05 08:41:12;;;;;;;7.93;6.63;;;;;;;19.55;71.00;99353.13;255662;1103;116621;-67
2021/08/05 08:46:20;;;;;;;6.43;5.93;;;;;;;19.59;70.59;99351.40;257242;1103;138857;-69
2021/08/05 08:51:26;;;;;;;4.98;4.63;;;;;;;19.70;70.00;99352.79;254969;1104;117122;-69
2021/08/05 08:56:34;;;;;;;6.53;6.03;;;;;;;19.69;69.85;99348.48;257169;1104;116639;-69
2021/08/05 09:01:41;;;;;;;7.73;6.58;;;;;;;19.72;69.64;99350.58;257292;1103;117231;-69
2021/08/05 09:06:48;;;;;;;6.07;5.57;;;;;;;19.86;69.44;99353.27;257336;1104;115230;-69
2021/08/05 09:11:51;;;;;;;8.15;7.50;;;;;;;19.90;69.01;99356.94;257159;1103;116425;-69
2021/08/05 09:17:35;;;;;;;8.53;7.73;;;;;;;19.90;68.99;99354.23;257272;1104;115944;-69
2021/08/05 09:22:45;;;;;;;8.90;8.10;;;;;;;19.82;68.75;99361.98;257320;1104;116399;-69
2021/08/05 09:27:51;;;;;;;11.13;10.13;;;;;;;19.73;68.88;99366.50;257208;1103;115083;-68
2021/08/05 09:32:54;;;;;;;10.00;9.20;;;;;;;19.65;68.38;99364.52;257163;1103;115542;-69
2021/08/05 09:38:14;;;;;;;10.78;9.88;;;;;;;19.58;68.68;99357.91;256990;1103;115500;-69
2021/08/05 09:43:28;;;;;;;7.30;6.70;;;;;;;19.52;68.29;99357.23;253849;1104;114793;-69
2021/08/05 09:48:37;;;;;;;9.43;8.60;;;;;;;19.48;68.18;99361.61;257154;1104;115147;-68
2021/08/05 09:53:57;;;;;;;7.68;7.00;;;;;;;19.56;68.67;99362.84;256561;1104;115172;-68
2021/08/05 09:59:05;;;;;;;6.70;6.18;;;;;;;19.63;68.42;99349.69;254870;1104;114615;-68
2021/08/05 10:04:48;;;;;;;9.60;7.68;;;;;;;19.84;68.09;99346.25;253676;1104;114792;-67
2021/08/05 10:09:58;;;;;;;8.90;7.90;;;;;;;20.19;67.97;99339.19;255999;1105;114895;-70
2021/08/05 10:15:12;;;;;;;10.55;8.38;;;;;;;20.50;67.48;99331.13;253690;1104;115725;-70
2021/08/05 10:20:16;;;;;;;7.98;7.38;;;;;;;20.61;67.07;99326.27;253604;1103;115032;-69
2021/08/05 10:25:25;;;;;;;8.10;6.63;;;;;;;20.79;66.55;99324.45;254564;1104;114940;-70
2021/08/05 10:30:28;;;;;;;6.90;6.40;;;;;;;20.79;66.42;99329.88;253835;1102;114826;-69
2021/08/05 10:35:33;;;;;;;7.33;6.63;;;;;;;20.80;66.35;99313.28;254703;1104;115445;-68
2021/08/05 10:40:36;;;;;;;7.30;6.70;;;;;;;20.70;65.71;99320.91;256236;1103;116271;-69
2021/08/05 10:45:40;;;;;;;6.47;5.30;;;;;;;20.59;65.89;99319.56;256075;1104;115055;-69
2021/08/05 10:50:48;;;;;;;8.28;7.28;;;;;;;20.47;65.73;99317.45;253517;1098;114981;-69
2021/08/05 10:55:52;;;;;;;7.93;7.27;;;;;;;20.36;65.73;99306.03;257196;1104;115204;-69
2021/08/05 11:01:02;;;;;;;6.43;5.83;;;;;;;20.40;65.74;99301.64;257068;1103;115269;-69
2021/08/05 11:06:23;;;;;;;7.15;6.38;;;;;;;20.53;65.55;99299.14;257230;1104;115228;-69
2021/08/05 11:11:30;;;;;;;7.10;6.08;;;;;;;20.73;65.23;99304.03;257013;1103;115870;-68
2021/08/05 11:16:59;;;;;;;9.20;6.17;;;;;;;20.81;64.74;99297.83;257243;1103;115096;-67
2021/08/05 11:22:30;;;;;;;5.00;4.55;;;;;;;20.80;64.48;99278.06;257014;1103;115113;-69
2021/08/05 11:27:33;;;;;;;7.73;5.30;;;;;;;20.84;63.97;99272.83;257271;1103;116373;-67
2021/08/05 11:32:38;;;;;;;5.73;5.30;;;;;;;20.87;63.97;99271.41;257538;1104;115390;-70
2021/08/05 11:38:08;;;;;;;5.20;4.80;;;;;;;20.99;64.02;99268.91;254886;1103;115121;-70
2021/08/05 11:43:22;;;;;;;4.63;4.18;;;;;;;21.06;63.71;99266.53;255375;1096;114680;-69
2021/08/05 11:48:36;;;;;;;4.23;3.80;;;;;;;21.02;63.44;99258.23;253841;1102;114640;-68
2021/08/05 11:53:43;;;;;;;4.48;3.78;;;;;;;21.09;63.18;99245.03;254029;1104;115688;-68
2021/08/05 11:58:49;;;;;;;3.68;3.38;;;;;;;21.11;63.13;99234.64;254381;1096;115434;-67
2021/08/05 12:03:51;;;;;;;6.43;3.50;;;;;;;21.16;62.91;99230.98;253892;1096;115306;-67
2021/08/05 12:09:13;;;;;;;3.75;3.45;;;;;;;21.17;62.39;99227.16;255841;1104;115804;-68
2021/08/05 12:14:17;;;;;;;3.60;3.30;;;;;;;21.11;62.38;99212.96;253923;1104;115073;-67
2021/08/05 12:19:20;;;;;;;5.80;3.20;;;;;;;21.09;61.77;99217.13;253710;1103;115258;-68
2021/08/05 12:24:25;;;;;;;3.28;3.08;;;;;;;20.99;61.67;99209.30;253737;1103;115855;-66
2021/08/05 12:29:28;;;;;;;3.00;2.40;;;;;;;20.89;61.41;99193.33;256202;1103;115203;-69
2021/08/05 12:34:30;;;;;;;3.07;2.87;;;;;;;20.85;61.57;99188.53;255377;1103;116270;-69
2021/08/05 12:39:34;;;;;;;2.48;2.38;;;;;;;20.78;61.32;99184.72;253738;1102;115838;-69
2021/08/05 12:44:37;;;;;;;3.58;2.75;;;;;;;20.61;61.10;99168.41;253699;1104;116838;-69
2021/08/05 12:49:42;;;;;;;4.50;2.90;;;;;;;20.55;61.64;99178.58;253943;1103;116701;-69
2021/08/05 12:54:56;;;;;;;16.75;5.13;;;;;;;20.54;62.09;99178.89;255957;1104;117041;-67
2021/08/05 13:00:01;;;;;;;6.68;3.15;;;;;;;20.48;61.71;99175.55;254009;1104;115914;-65
2021/08/05 13:05:08;;;;;;;3.70;2.98;;;;;;;20.33;61.00;99168.60;253909;1100;116764;-65
2021/08/05 13:10:11;;;;;;;2.63;2.43;;;;;;;20.14;60.84;99157.23;256348;1104;116529;-67
2021/08/05 13:15:44;;;;;;;3.03;2.60;;;;;;;20.05;61.29;99151.77;257291;1104;115674;-67
2021/08/05 13:20:51;;;;;;;3.30;3.10;;;;;;;19.98;61.56;99132.47;253842;1104;115412;-67
2021/08/05 13:25:55;;;;;;;4.85;3.03;;;;;;;19.93;62.13;99134.52;253841;1104;115875;-66
2021/08/05 13:31:06;;;;;;;4.45;2.70;;;;;;;19.94;62.14;99126.09;257104;1103;117250;-67
2021/08/05 13:36:09;;;;;;;8.88;3.45;;;;;;;19.91;62.37;99126.70;257073;1103;117250;-68
2021/08/05 13:41:13;;;;;;;3.93;3.57;;;;;;;19.89;62.97;99128.13;257174;1104;116487;-68
2021/08/05 13:46:16;;;;;;;5.93;3.63;;;;;;;19.92;63.11;99124.80;257295;1104;137416;-68
2021/08/05 13:51:19;;;;;;;4.23;3.83;;;;;;;19.90;63.46;99113.48;257260;1104;116313;-67
2021/08/05 13:56:23;;;;;;;5.83;3.77;;;;;;;19.94;63.67;99107.15;257402;1103;118381;-67
2021/08/05 14:01:28;;;;;;;3.48;3.28;;;;;;;19.95;64.17;99116.86;257300;1103;115382;-67
2021/08/05 14:06:35;;;;;;;3.53;3.23;;;;;;;19.95;64.10;99116.06;254374;1104;116877;-67
2021/08/05 14:11:38;;;;;;;;;;;;;;;19.83;64.21;99103.94;254228;1103;115921;-66
2021/08/05 14:16:44;;;;;;;6.55;3.83;;;;;;;19.80;64.77;99093.73;255238;1103;103112;-66
2021/08/05 14:21:49;;;;;;;3.23;3.03;;;;;;;19.80;65.01;99088.33;254130;1104;115828;-66
2021/08/05 14:26:56;;;;;;;4.25;3.85;;;;;;;19.73;64.70;99084.47;257234;1104;117135;-66
2021/08/05 14:32:03;;;;;;;3.73;3.43;;;;;;;19.65;64.92;99069.79;254329;1104;116247;-66
2021/08/05 14:37:07;;;;;;;3.15;2.95;;;;;;;19.59;65.54;99068.31;254031;1104;116443;-64
2021/08/05 14:42:11;;;;;;;4.23;3.83;;;;;;;19.54;65.94;99060.37;254485;1104;115633;-66
2021/08/05 14:47:18;;;;;;;3.83;3.30;;;;;;;19.56;66.31;99051.95;255441;1104;115906;-66
2021/08/05 14:52:21;;;;;;;3.90;3.60;;;;;;;19.57;66.22;99051.61;256285;1104;117738;-65
2021/08/05 14:57:25;;;;;;;4.77;4.13;;;;;;;19.59;66.42;99048.59;256561;1096;115750;-64
2021/08/05 15:02:30;;;;;;;5.00;3.60;;;;;;;19.62;65.90;99039.86;254680;1104;116267;-64
2021/08/05 15:07:37;;;;;;;4.90;4.43;;;;;;;19.63;66.80;99049.58;257219;1102;115689;-66
2021/08/05 15:12:42;;;;;;;5.23;4.73;;;;;;;19.54;67.02;99046.84;255446;1104;117031;-64
2021/08/05 15:17:46;;;;;;;4.95;4.53;;;;;;;19.41;66.89;99045.78;254428;1104;116535;-65
2021/08/05 15:22:50;;;;;;;5.35;4.88;;;;;;;19.27;66.98;99039.64;257253;1104;115732;-65
2021/08/05 15:27:54;;;;;;;5.83;5.30;;;;;;;19.17;67.54;99031.81;257283;1104;115665;-66
2021/08/05 15:32:57;;;;;;;5.60;5.20;;;;;;;19.10;67.98;99026.84;257290;1103;116939;-65
2021/08/05 15:38:01;;;;;;;6.43;5.40;;;;;;;19.01;68.20;99033.27;257420;1104;116302;-65
2021/08/05 15:43:05;;;;;;;5.50;5.00;;;;;;;18.90;68.42;99023.84;257043;1104;116561;-65
2021/08/05 15:48:09;;;;;;;9.98;6.13;;;;;;;18.79;68.63;99025.97;257060;1104;115566;-66
2021/08/05 15:53:12;;;;;;;6.15;5.73;;;;;;;18.63;68.93;99022.04;257176;1104;116130;-66
2021/08/05 15:58:21;;;;;;;5.63;5.13;;;;;;;18.50;69.17;99020.94;257268;1103;116035;-66
2021/08/05 16:03:26;;;;;;;5.65;5.15;;;;;;;18.38;69.63;99018.75;257306;1104;116578;-66
2021/08/05 16:08:37;;;;;;;4.83;4.37;;;;;;;18.20;69.80;99011.60;257362;1103;115341;-66
2021/08/05 16:13:42;;;;;;;4.38;3.98;;;;;;;18.10;70.17;99009.91;255270;1102;115194;-66
2021/08/05 16:18:46;;;;;;;4.60;4.30;;;;;;;17.98;70.06;98995.36;255937;1104;115613;-66
2021/08/05 16:23:53;;;;;;;4.60;4.20;;;;;;;17.84;70.49;98990.76;254537;1104;116319;-67
2021/08/05 16:29:09;;;;;;;4.38;4.03;;;;;;;17.70;70.79;98981.89;256148;1104;115878;-65
2021/08/05 16:34:15;;;;;;;5.20;4.77;;;;;;;17.59;70.90;98983.14;254551;1104;116350;-65
2021/08/05 16:39:21;;;;;;;4.75;4.43;;;;;;;17.54;71.35;98971.66;255091;1098;115517;-67
2021/08/05 16:44:24;;;;;;;7.18;4.50;;;;;;;17.44;71.45;98972.64;255526;1100;115499;-66
2021/08/05 16:49:28;;;;;;;7.10;4.23;;;;;;;17.33;71.72;98972.05;253757;1096;115751;-66
2021/08/05 16:54:31;;;;;;;5.58;5.10;;;;;;;17.28;72.08;98969.44;254522;1103;115217;-65
2021/08/05 16:59:35;;;;;;;4.73;4.33;;;;;;;17.22;72.36;98965.23;255235;1103;115600;-67
2021/08/05 17:04:39;;;;;;;5.30;4.90;;;;;;;17.13;72.47;98957.03;256264;1104;115401;-65
2021/08/05 17:09:41;;;;;;;5.83;5.33;;;;;;;17.06;72.74;98947.77;254894;1096;117184;-67
2021/08/05 17:14:47;;;;;;;9.23;5.03;;;;;;;17.01;72.99;98939.77;256060;1096;116034;-66
2021/08/05 17:19:51;;;;;;;5.60;5.10;;;;;;;16.95;72.73;98938.26;254618;1102;114925;-66
2021/08/05 17:24:54;;;;;;;6.08;3.88;;;;;;;16.82;73.00;98937.11;253986;1102;115042;-64
2021/08/05 17:29:58;;;;;;;5.18;4.58;;;;;;;16.71;73.27;98935.70;256991;1103;115036;-65
2021/08/05 17:35:02;;;;;;;6.03;4.53;;;;;;;16.64;73.69;98935.27;257132;1103;115379;-65
2021/08/05 17:40:06;;;;;;;6.23;4.95;;;;;;;16.64;73.81;98935.27;254276;1096;115145;-67
2021/08/05 17:45:11;;;;;;;6.45;5.60;;;;;;;16.58;73.93;98939.09;257096;1104;118320;-65
2021/08/05 17:50:14;;;;;;;6.77;6.07;;;;;;;16.54;74.14;98925.43;257255;1104;115256;-67
2021/08/05 17:55:18;;;;;;;5.43;4.83;;;;;;;16.53;73.87;98928.41;257157;1103;117364;-67
2021/08/05 18:00:21;;;;;;;6.90;5.78;;;;;;;16.55;74.12;98924.34;257173;1103;115257;-67
2021/08/05 18:05:25;;;;;;;5.87;5.40;;;;;;;16.53;74.37;98918.45;257105;1104;115061;-65
2021/08/05 18:10:28;;;;;;;5.98;5.48;;;;;;;16.44;74.64;98918.34;256829;1103;115175;-68
2021/08/05 18:15:32;;;;;;;6.15;5.55;;;;;;;16.41;74.81;98904.67;253714;1096;115366;-67
2021/08/05 18:20:36;;;;;;;5.78;4.90;;;;;;;16.38;75.09;98899.88;257277;1103;114946;-64
2021/08/05 18:25:38;;;;;;;8.73;5.50;;;;;;;16.35;75.04;98893.19;255082;1103;115228;-66
2021/08/05 18:51:43;;;;;;;8.35;5.58;;;;;;;15.70;76.67;98866.17;262107;1094;103900;-69
2021/08/05 18:56:46;;;;;;;7.20;6.60;;;;;;;15.67;76.63;98864.05;256351;1104;114699;-69
2021/08/05 19:01:50;;;;;;;6.47;5.87;;;;;;;15.69;76.75;98856.51;253682;1104;116306;-69
2021/08/05 19:06:56;;;;;;;6.70;6.00;;;;;;;15.71;76.71;98851.64;253902;1104;114640;-70
2021/08/05 19:11:59;;;;;;;5.20;4.70;;;;;;;15.73;76.84;98835.23;255352;1104;115081;-67
2021/08/05 19:17:06;;;;;;;5.47;4.97;;;;;;;15.73;77.31;98833.35;255938;1104;114261;-67
2021/08/05 19:22:11;;;;;;;5.93;5.47;;;;;;;15.76;76.90;98830.09;257154;1104;115273;-68
2021/08/05 19:27:14;;;;;;;4.88;4.48;;;;;;;15.80;76.97;98825.73;255483;1104;114482;-68
2021/08/05 19:32:18;;;;;;;6.65;6.10;;;;;;;15.80;76.93;98806.92;256623;1104;114922;-66
2021/08/05 19:37:26;;;;;;;4.50;4.18;;;;;;;15.80;77.00;98798.86;255966;1104;116088;-67
2021/08/05 19:42:34;;;;;;;6.43;5.47;;;;;;;15.82;77.31;98788.63;256170;1104;116113;-67
2021/08/05 19:47:39;;;;;;;6.57;5.97;;;;;;;15.87;77.33;98787.75;257001;1104;115419;-67
2021/08/05 19:52:44;;;;;;;6.50;6.00;;;;;;;15.91;76.95;98777.19;257162;1104;116762;-68
2021/08/05 19:57:48;;;;;;;7.58;6.88;;;;;;;15.91;77.01;98771.81;257197;1104;114723;-68
2021/08/05 20:02:53;;;;;;;6.53;5.93;;;;;;;15.93;77.60;98766.94;257057;1104;114903;-67
2021/08/05 20:07:57;;;;;;;6.00;5.50;;;;;;;15.92;77.50;98768.03;257003;1104;116085;-67
2021/08/05 20:13:07;;;;;;;7.45;6.85;;;;;;;15.91;77.30;98756.48;256829;1104;117201;-67
2021/08/05 20:18:12;;;;;;;6.63;6.00;;;;;;;15.91;77.55;98753.00;257268;1104;115156;-67
2021/08/05 20:23:16;;;;;;;8.57;6.23;;;;;;;15.93;77.76;98737.38;257353;1104;115025;-68
2021/08/05 20:28:19;;;;;;;6.70;6.20;;;;;;;15.93;77.66;98740.87;254213;1104;115277;-68
2021/08/05 20:33:23;;;;;;;5.78;5.28;;;;;;;15.93;77.94;98742.75;256029;1104;116085;-68
2021/08/05 20:38:26;;;;;;;6.23;5.80;;;;;;;15.95;77.86;98744.06;254358;1100;115796;-66
2021/08/05 20:43:36;;;;;;;5.93;5.45;;;;;;;15.94;78.19;98752.42;255836;1104;115128;-67
2021/08/05 20:48:40;;;;;;;6.10;5.63;;;;;;;15.89;78.07;98752.52;253997;1100;114278;-66
2021/08/05 20:53:48;;;;;;;6.63;6.03;;;;;;;15.87;78.19;98742.06;254339;1104;115305;-66
2021/08/05 20:58:52;;;;;;;6.75;6.15;;;;;;;15.85;78.24;98746.13;253725;1104;114563;-66
2021/08/05 21:03:57;;;;;;;7.35;6.58;;;;;;;15.82;78.04;98740.25;254600;1104;114408;-66
2021/08/05 21:09:02;;;;;;;6.83;6.20;;;;;;;15.82;78.09;98748.31;253896;1104;115143;-67
2021/08/05 21:14:06;;;;;;;5.73;5.23;;;;;;;15.82;78.09;98737.56;254310;1104;115337;-67
2021/08/05 21:19:09;;;;;;;5.77;5.23;;;;;;;15.78;78.22;98741.13;254210;1099;114735;-66
2021/08/05 21:24:13;;;;;;;6.40;5.80;;;;;;;15.75;78.46;98742.50;254782;1104;115438;-67
2021/08/05 21:29:16;;;;;;;6.33;5.00;;;;;;;15.71;78.08;98730.74;253828;1104;115103;-66
2021/08/05 21:34:20;;;;;;;5.83;5.35;;;;;;;15.70;78.78;98721.08;254482;1104;115014;-66
2021/08/05 21:39:26;;;;;;;7.13;5.18;;;;;;;15.68;78.58;98720.58;254660;1104;115707;-67
2021/08/05 21:44:30;;;;;;;5.43;5.03;;;;;;;15.68;78.84;98719.78;254694;1104;115799;-67
2021/08/05 21:49:34;;;;;;;5.67;5.20;;;;;;;15.70;78.52;98717.60;257287;1104;114569;-66
2021/08/05 21:54:38;;;;;;;5.63;5.13;;;;;;;15.70;78.31;98707.65;255501;1104;114440;-67
2021/08/05 21:59:41;;;;;;;7.33;6.40;;;;;;;15.72;78.84;98702.78;257101;1104;115921;-66
2021/08/05 22:04:45;;;;;;;6.40;5.80;;;;;;;15.74;78.81;98697.13;257088;1104;115812;-67
2021/08/05 22:09:49;;;;;;;5.25;4.90;;;;;;;15.75;78.81;98686.08;257167;1104;115450;-68
2021/08/05 22:14:52;;;;;;;6.50;6.00;;;;;;;15.74;78.72;98684.48;257075;1104;116015;-68
2021/08/05 22:19:56;;;;;;;5.83;5.33;;;;;;;15.76;78.81;98673.45;257113;1104;114779;-67
2021/08/05 22:25:03;;;;;;;7.35;6.68;;;;;;;15.79;78.66;98668.28;257187;1104;115205;-68
2021/08/05 22:30:08;;;;;;;6.60;6.10;;;;;;;15.80;78.69;98664.50;256986;1104;212671;-67
2021/08/05 22:35:12;;;;;;;6.87;6.27;;;;;;;15.83;78.97;98655.86;257103;1104;116975;-67
2021/08/05 22:40:21;;;;;;;6.33;5.73;;;;;;;15.85;78.95;98660.14;254461;1104;115836;-66
2021/08/05 22:45:25;;;;;;;10.70;5.60;;;;;;;15.81;78.82;98655.35;255718;1104;115783;-67
2021/08/05 22:50:29;;;;;;;6.77;5.67;;;;;;;15.75;78.09;98645.78;254721;1104;116171;-68
2021/08/05 22:55:32;;;;;;;6.40;5.78;;;;;;;15.72;78.87;98640.99;254277;1104;115526;-67
2021/08/05 23:00:36;;;;;;;5.30;4.90;;;;;;;15.70;79.28;98634.31;254965;1099;115853;-66
2021/08/05 23:05:42;;;;;;;13.38;7.98;;;;;;;15.67;79.01;98627.64;254054;1104;114794;-67
2021/08/05 23:10:47;;;;;;;6.48;5.63;;;;;;;15.66;78.73;98630.62;255142;1104;115270;-67
2021/08/05 23:15:50;;;;;;;11.50;6.40;;;;;;;15.67;79.42;98622.27;254903;1104;115738;-67
2021/08/05 23:20:54;;;;;;;6.65;5.50;;;;;;;15.67;79.17;98621.47;254575;1104;116003;-67
2021/08/05 23:26:00;;;;;;;6.10;5.48;;;;;;;15.61;79.16;98607.32;255644;1104;116002;-67
2021/08/05 23:31:03;;;;;;;5.53;5.05;;;;;;;15.62;79.50;98602.74;254581;1104;115422;-67
2021/08/05 23:36:08;;;;;;;6.18;4.78;;;;;;;15.53;79.58;98593.77;255079;1104;115882;-66
2021/08/05 23:41:12;;;;;;;5.13;4.73;;;;;;;15.52;79.22;98602.91;255059;1104;116726;-66